KISO

Kinston Regional Jetport at Stallings Field Airport

Kinston, North Carolina, USA
KISO 202320Z 2100/2124 04005KT P6SM SKC AMD LTD TO CLD VIS AND WIND
Issued Valid From Valid To
Apr-20 @ 23:20 UTC
(4 hours ago)
Apr-21 @ 00:00 UTC
(4 hours ago)
Apr-22 @ 00:00 UTC
(in 20 hours)
Apr-21 @ 00:00 to Apr-22 @ 00:00
KISO 202320Z 2100/2124 04005KT P6SM SKC AMD LTD TO CLD VIS AND WIND
Wind Visibility Clouds
40° at 5 knots Greater than 6 miles
  • Clear skies
KISO 202320Z 2100/2124 04005KT P6SM SKC AMD LTD TO CLD VIS AND WIND
Issued Apr-20 @ 23:20 UTC
(4 hours ago)
Valid From Apr-21 @ 00:00 UTC
(4 hours ago)
Valid To Apr-22 @ 00:00 UTC
(in 20 hours)
Apr-21 @ 00:00 - Apr-22 @ 00:00
Wind Visibility
40° at 5 knots Greater than 6 miles
Clouds
  • Clear skies